Time;durP1;ratioP1;P1;durP2;ratioP2;P2;SDS_P1;SDS_P2;PMS_P1;PMS_P2;Temp;Humidity;BMP_temperature;BMP_pressure;BME280_temperature;BME280_humidity;BME280_pressure;Samples;Min_cycle;Max_cycle;Signal;HPM_P1;HPM_P2
2023/05/03 00:00:17;;;;;;;16.37;9.23;;;5.30;99.90;6.00;94797.00;;;;7399244;19;20180;-75
2023/05/03 00:02:45;;;;;;;12.73;8.63;;;5.30;99.90;6.00;94771.00;;;;7398086;19;20137;-75
2023/05/03 00:05:26;;;;;;;16.37;9.03;;;5.30;99.90;6.00;94787.00;;;;7398679;19;20147;-77
2023/05/03 00:07:53;;;;;;;14.20;8.53;;;5.30;1.00;6.00;94840.00;;;;7401219;19;20599;-77
2023/05/03 00:10:28;;;;;;;11.87;8.43;;;5.20;1.00;6.00;94785.00;;;;7395718;19;20166;-76
2023/05/03 00:12:55;;;;;;;15.73;9.00;;;5.20;1.00;5.90;94807.00;;;;7398942;19;20151;-76
2023/05/03 00:15:28;;;;;;;10.60;8.03;;;5.20;1.00;5.80;94790.00;;;;7398332;19;20599;-78
2023/05/03 00:17:55;;;;;;;14.30;8.67;;;5.10;1.00;5.70;94789.00;;;;7398713;19;20200;-76
2023/05/03 00:20:30;;;;;;;15.47;9.80;;;5.00;1.00;5.70;94835.00;;;;7398816;19;20127;-76
2023/05/03 00:22:58;;;;;;;18.03;8.97;;;4.90;1.00;5.70;94832.00;;;;7399660;19;20157;-77
2023/05/03 00:25:31;;;;;;;14.80;9.30;;;4.90;1.00;5.70;94815.00;;;;7396939;19;20139;-78
2023/05/03 00:28:04;;;;;;;17.33;9.57;;;4.90;99.90;5.60;94786.00;;;;7399740;19;20797;-77
2023/05/03 00:30:40;;;;;;;15.07;9.70;;;4.90;99.90;5.70;94829.00;;;;7397760;19;20196;-77
2023/05/03 00:33:07;;;;;;;18.43;9.40;;;4.90;99.90;5.70;94825.00;;;;7398576;19;20604;-76
2023/05/03 00:35:41;;;;;;;16.83;9.97;;;4.90;99.90;5.70;94802.00;;;;7397922;19;20149;-77
2023/05/03 00:38:08;;;;;;;15.30;9.93;;;5.00;99.90;5.60;94829.00;;;;7398103;19;20141;-76
2023/05/03 00:40:42;;;;;;;13.77;9.60;;;4.90;99.90;5.50;94780.00;;;;7399030;19;20492;-77
2023/05/03 00:43:15;;;;;;;14.53;9.20;;;4.80;99.90;5.70;94797.00;;;;7398663;19;20668;-75
2023/05/03 00:45:50;;;;;;;18.57;9.50;;;4.80;99.90;5.40;94786.00;;;;7397521;19;20133;-75
2023/05/03 00:48:41;;;;;;;14.00;9.67;;;4.80;99.90;5.40;94772.00;;;;7398752;19;20634;-76
2023/05/03 00:51:15;;;;;;;13.83;8.83;;;4.80;99.90;5.20;94768.00;;;;7396356;19;20604;-77
2023/05/03 00:53:43;;;;;;;15.43;8.77;;;4.60;99.90;5.20;94738.00;;;;7397497;19;20627;-77
2023/05/03 00:56:20;;;;;;;16.70;9.63;;;4.60;99.90;5.20;94802.00;;;;7396919;19;20152;-77
2023/05/03 00:58:55;;;;;;;18.70;10.00;;;4.60;99.90;5.40;94792.00;;;;7396580;19;20635;-76
2023/05/03 01:02:03;;;;;;;15.47;10.07;;;4.60;1.00;5.30;94779.00;;;;7398573;19;20141;-76
2023/05/03 01:04:37;;;;;;;17.67;10.27;;;4.60;1.00;5.30;94772.00;;;;7391049;19;20158;-77
2023/05/03 01:07:25;;;;;;;17.57;9.53;;;4.60;1.00;5.20;94794.00;;;;7396804;19;20497;-76
2023/05/03 01:10:00;;;;;;;19.70;10.83;;;4.50;1.00;5.10;94799.00;;;;7397516;19;20629;-76
2023/05/03 01:12:52;;;;;;;17.43;10.87;;;4.40;1.00;5.30;94800.00;;;;7390085;19;20117;-76
2023/05/03 01:15:47;;;;;;;17.47;10.63;;;4.50;1.00;5.20;94796.00;;;;7395199;19;20151;-76
2023/05/03 01:18:28;;;;;;;23.37;11.93;;;4.50;1.00;5.20;94796.00;;;;7396226;19;20197;-76
2023/05/03 01:21:04;;;;;;;18.50;10.87;;;4.60;1.00;5.20;94766.00;;;;7394000;19;20129;-76
2023/05/03 01:23:39;;;;;;;18.70;11.60;;;4.50;1.00;5.10;94780.00;;;;7396666;19;20137;-77
2023/05/03 01:26:21;;;;;;;20.77;11.00;;;4.50;1.00;5.10;94780.00;;;;7397320;19;20133;-76
2023/05/03 01:28:49;;;;;;;20.23;11.43;;;4.40;1.00;5.10;94783.00;;;;7396854;19;20474;-76
2023/05/03 01:31:42;;;;;;;20.43;11.50;;;4.50;1.00;5.00;94771.00;;;;7395432;19;20611;-76
2023/05/03 01:34:36;;;;;;;18.10;11.43;;;4.40;1.00;5.10;94784.00;;;;7396800;19;20634;-76
2023/05/03 01:37:12;;;;;;;20.47;11.47;;;4.40;1.00;5.00;94758.00;;;;7401444;19;20596;-76
2023/05/03 01:40:07;;;;;;;21.97;10.97;;;4.40;1.00;4.90;94785.00;;;;7403750;19;20141;-76
2023/05/03 01:42:43;;;;;;;24.33;12.10;;;4.30;1.00;4.90;94758.00;;;;7405184;19;20189;-76
2023/05/03 01:45:18;;;;;;;23.10;11.43;;;4.20;1.00;4.70;94768.00;;;;7403445;19;20131;-76
2023/05/03 01:47:51;;;;;;;17.03;11.67;;;4.10;1.00;4.70;94749.00;;;;7405270;19;20125;-76
2023/05/03 01:50:26;;;;;;;23.53;12.43;;;4.10;1.00;4.70;94757.00;;;;7403557;19;20152;-76
2023/05/03 01:52:59;;;;;;;21.33;12.20;;;4.10;1.00;4.60;94753.00;;;;7403176;19;20637;-76
2023/05/03 01:55:35;;;;;;;20.80;12.17;;;4.00;1.00;4.60;94767.00;;;;7402952;19;20137;-76
2023/05/03 01:58:08;;;;;;;24.73;12.80;;;4.00;1.00;4.60;94758.00;;;;7404723;19;20162;-76
2023/05/03 02:00:45;;;;;;;22.83;12.10;;;3.90;1.00;4.50;94765.00;;;;7404079;19;20523;-77
2023/05/03 02:03:19;;;;;;;21.80;12.00;;;3.90;1.00;4.50;94758.00;;;;7401421;19;20190;-76
2023/05/03 02:05:52;;;;;;;23.53;13.00;;;3.90;1.00;4.50;94767.00;;;;7403155;19;20133;-76
2023/05/03 02:08:19;;;;;;;21.37;11.77;;;3.90;1.00;4.50;94773.00;;;;7403273;19;20148;-76
2023/05/03 02:10:54;;;;;;;23.70;12.13;;;3.90;1.00;4.50;94761.00;;;;7403762;19;20628;-76
2023/05/03 02:13:21;;;;;;;24.67;11.53;;;3.90;1.00;4.40;94766.00;;;;7401084;19;20137;-77
2023/05/03 02:15:54;;;;;;;22.10;11.90;;;3.80;1.00;4.40;94723.00;;;;7400375;19;20137;-76
2023/05/03 02:18:22;;;;;;;24.60;11.93;;;3.80;1.00;4.30;94733.00;;;;7401803;19;20129;-76
2023/05/03 02:20:56;;;;;;;22.07;11.97;;;3.70;1.00;4.30;94723.00;;;;7402665;19;20162;-76
2023/05/03 02:23:30;;;;;;;25.73;13.30;;;3.70;1.00;4.30;94764.00;;;;7402439;19;20137;-76
2023/05/03 02:26:05;;;;;;;21.03;12.13;;;3.70;12.30;4.30;94741.00;;;;7401896;19;20152;-76
2023/05/03 02:28:38;;;;;;;25.70;11.10;;;3.70;11.20;4.20;94747.00;;;;7402172;19;20587;-76
2023/05/03 02:31:06;;;;;;;24.87;12.17;;;3.70;10.40;4.20;94752.00;;;;7402224;19;20141;-76
2023/05/03 02:33:40;;;;;;;23.80;12.40;;;3.60;16.60;4.30;94747.00;;;;7402504;19;20132;-76
2023/05/03 02:36:07;;;;;;;22.37;12.53;;;3.70;37.90;4.30;94763.00;;;;7401389;19;20559;-76
2023/05/03 02:38:40;;;;;;;31.53;14.07;;;3.70;47.20;4.30;94725.00;;;;7401537;19;20157;-76
2023/05/03 02:41:07;;;;;;;23.00;12.83;;;3.70;41.70;4.20;94749.00;;;;7400748;19;20153;-76
2023/05/03 02:43:41;;;;;;;23.47;11.87;;;3.60;42.00;4.20;94752.00;;;;7402840;19;20124;-76
2023/05/03 02:46:08;;;;;;;25.47;12.93;;;3.60;55.70;4.10;94757.00;;;;7400878;19;20172;-76
2023/05/03 02:48:42;;;;;;;21.80;12.00;;;3.60;49.70;4.00;94761.00;;;;7400868;19;20125;-76
2023/05/03 02:51:10;;;;;;;26.03;12.07;;;3.50;40.40;4.10;94756.00;;;;7400098;19;20495;-76
2023/05/03 02:53:37;;;;;;;22.90;11.53;;;3.50;57.00;4.00;94743.00;;;;7400718;19;20137;-76
2023/05/03 02:56:10;;;;;;;27.27;13.77;;;3.50;52.60;4.00;94728.00;;;;7400445;19;20626;-76
2023/05/03 02:58:38;;;;;;;26.23;12.87;;;3.50;68.20;4.10;94759.00;;;;7402739;19;20137;-76
2023/05/03 03:01:05;;;;;;;26.27;11.70;;;3.50;78.40;3.90;94758.00;;;;7401115;19;20147;-76
2023/05/03 03:03:45;;;;;;;23.50;11.53;;;3.50;79.00;4.00;94727.00;;;;7398366;19;20236;-76
2023/05/03 03:06:19;;;;;;;23.23;12.43;;;3.40;81.90;4.00;94700.00;;;;7396730;19;20478;-76
2023/05/03 03:08:52;;;;;;;28.70;12.90;;;3.50;96.50;4.00;94732.00;;;;7400332;19;20140;-76
2023/05/03 03:11:26;;;;;;;23.27;12.33;;;3.50;99.90;4.00;94717.00;;;;7399948;19;20153;-76
2023/05/03 03:14:01;;;;;;;21.73;11.47;;;3.50;99.90;3.80;94716.00;;;;7400256;19;20615;-76
2023/05/03 03:16:28;;;;;;;23.33;11.43;;;3.40;99.90;3.80;94741.00;;;;7395663;19;20209;-76
2023/05/03 03:19:02;;;;;;;27.57;12.20;;;3.40;99.90;3.80;94750.00;;;;7400793;19;20200;-76
2023/05/03 03:21:36;;;;;;;27.23;12.80;;;3.30;99.90;3.80;94744.00;;;;7401061;19;20592;-76
2023/05/03 03:24:10;;;;;;;28.10;11.90;;;3.30;99.90;3.70;94749.00;;;;7401467;19;20141;-76
2023/05/03 03:26:37;;;;;;;25.43;12.17;;;3.30;99.90;3.80;94735.00;;;;7399429;19;20489;-75
2023/05/03 03:29:11;;;;;;;25.10;12.73;;;3.30;99.90;3.90;94753.00;;;;7400255;19;20150;-75
2023/05/03 03:31:44;;;;;;;31.73;14.17;;;3.40;99.90;3.90;94735.00;;;;7398514;19;20149;-76
2023/05/03 03:34:19;;;;;;;28.50;13.90;;;3.40;99.90;3.90;94738.00;;;;7399731;19;20141;-76
2023/05/03 03:36:47;;;;;;;30.50;14.03;;;3.40;99.90;3.80;94748.00;;;;7399506;19;20617;-76
2023/05/03 03:39:20;;;;;;;31.47;13.77;;;3.30;99.90;3.80;94756.00;;;;7399283;19;20510;-76
2023/05/03 03:41:48;;;;;;;29.70;15.40;;;3.20;99.90;3.70;94745.00;;;;7399269;19;20138;-76
2023/05/03 03:44:21;;;;;;;30.13;15.23;;;3.20;99.90;3.80;94733.00;;;;7400867;19;20154;-76
2023/05/03 03:46:56;;;;;;;34.90;16.40;;;3.20;99.90;3.80;94757.00;;;;7399412;19;20124;-76
2023/05/03 03:49:30;;;;;;;41.70;16.73;;;3.20;99.90;3.90;94737.00;;;;7398998;19;20139;-76
2023/05/03 03:52:05;;;;;;;35.67;16.47;;;3.30;99.90;3.80;94748.00;;;;7398180;19;20125;-76
2023/05/03 03:54:34;;;;;;;31.37;14.53;;;3.20;99.90;3.60;94776.00;;;;7399189;19;20446;-76
2023/05/03 03:57:04;;;;;;;32.53;16.00;;;3.20;99.90;3.70;94742.00;;;;7399048;19;20614;-76
2023/05/03 03:59:37;;;;;;;32.83;16.17;;;3.10;99.90;3.70;94747.00;;;;7399745;19;20652;-76
2023/05/03 04:02:12;;;;;;;40.37;16.53;;;3.10;99.90;3.80;94780.00;;;;7398382;19;20145;-76
2023/05/03 04:04:52;;;;;;;43.17;16.30;;;3.10;99.90;3.90;94767.00;;;;7398932;19;20469;-76
2023/05/03 04:07:26;;;;;;;40.93;17.20;;;3.20;99.90;4.00;94762.00;;;;7400177;19;20153;-76
2023/05/03 04:10:00;;;;;;;39.43;18.17;;;3.30;99.90;4.20;94774.00;;;;7398441;19;20631;-76
2023/05/03 04:12:29;;;;;;;50.33;18.33;;;3.50;99.90;4.40;94778.00;;;;7397524;19;20212;-76
2023/05/03 04:15:04;;;;;;;48.03;19.17;;;3.60;99.90;4.50;94745.00;;;;7394580;19;20133;-76
2023/05/03 04:17:33;;;;;;;48.47;20.87;;;3.80;99.90;4.70;94775.00;;;;7397699;19;20213;-76
2023/05/03 04:20:09;;;;;;;53.50;20.50;;;4.00;99.90;4.90;94772.00;;;;7398564;19;20129;-76
2023/05/03 04:22:40;;;;;;;52.17;19.07;;;4.20;99.90;5.00;94752.00;;;;7398843;19;20152;-76
2023/05/03 04:25:15;;;;;;;42.80;18.70;;;4.30;99.90;5.10;94723.00;;;;7396724;19;20141;-76
2023/05/03 04:27:44;;;;;;;51.00;21.43;;;4.40;99.90;5.30;94768.00;;;;7397968;19;20513;-76
2023/05/03 04:30:19;;;;;;;51.73;21.03;;;4.60;1.00;5.30;94781.00;;;;7384824;19;20158;-76
2023/05/03 04:32:54;;;;;;;57.63;21.93;;;4.70;1.00;5.40;94771.00;;;;7375523;19;20188;-77
2023/05/03 04:35:28;;;;;;;49.90;20.50;;;4.80;1.00;5.50;94785.00;;;;7382979;19;20597;-77
2023/05/03 04:37:55;;;;;;;49.70;22.33;;;4.90;1.00;5.60;94780.00;;;;7382565;19;20184;-77
2023/05/03 04:40:49;;;;;;;47.03;20.57;;;4.90;1.00;5.60;94759.00;;;;7372798;19;20524;-77
2023/05/03 04:43:17;;;;;;;45.00;21.43;;;5.00;1.00;5.70;94767.00;;;;7369687;19;20149;-75
2023/05/03 04:45:52;;;;;;;45.97;20.57;;;5.10;1.00;5.80;94773.00;;;;7369287;19;20165;-77
2023/05/03 04:48:26;;;;;;;57.93;22.67;;;5.10;1.00;5.70;94775.00;;;;7370927;19;20175;-76
2023/05/03 04:51:01;;;;;;;44.50;20.33;;;5.20;1.00;6.00;94763.00;;;;7370795;19;20144;-76
2023/05/03 04:53:28;;;;;;;45.37;21.07;;;5.20;1.00;5.90;94764.00;;;;7369306;19;20153;-77
2023/05/03 04:56:03;;;;;;;52.17;21.37;;;5.20;1.00;6.00;94768.00;;;;7369567;19;20148;-77
2023/05/03 04:58:31;;;;;;;47.50;20.50;;;5.20;1.00;6.00;94768.00;;;;7369259;19;21551;-76
2023/05/03 05:01:07;;;;;;;50.73;19.73;;;5.30;1.00;6.00;94779.00;;;;7368570;19;20196;-76
2023/05/03 05:03:42;;;;;;;47.90;19.53;;;5.30;1.00;6.00;94787.00;;;;7366970;19;20184;-76
2023/05/03 05:06:23;;;;;;;39.70;19.23;;;5.40;1.00;6.00;94756.00;;;;7368309;19;20174;-76
2023/05/03 05:08:57;;;;;;;41.33;19.37;;;5.40;1.00;6.20;94751.00;;;;7367675;19;20148;-76
2023/05/03 05:11:24;;;;;;;38.97;18.57;;;5.50;1.00;6.30;94742.00;;;;7370562;19;20144;-76
2023/05/03 05:13:59;;;;;;;38.43;19.47;;;5.60;1.00;6.40;94781.00;;;;7376588;19;20132;-77
2023/05/03 05:16:33;;;;;;;41.47;19.50;;;5.60;1.00;6.50;94773.00;;;;7372083;19;20129;-75
2023/05/03 05:19:08;;;;;;;36.10;17.80;;;5.60;1.00;6.40;94773.00;;;;7371363;19;20156;-76
2023/05/03 05:21:42;;;;;;;38.67;18.67;;;5.70;1.00;6.50;94795.00;;;;7376533;19;20140;-77
2023/05/03 05:24:32;;;;;;;38.27;19.03;;;5.80;1.00;6.60;94753.00;;;;7375963;19;20173;-76
2023/05/03 05:27:06;;;;;;;31.97;18.07;;;5.90;1.00;6.80;94797.00;;;;7376676;19;20177;-76
2023/05/03 05:29:41;;;;;;;35.10;18.40;;;5.90;1.00;6.90;94770.00;;;;7374481;19;20151;-76
2023/05/03 05:32:08;;;;;;;33.13;17.67;;;6.00;1.00;7.00;94795.00;;;;7373967;19;20671;-76
2023/05/03 05:34:44;;;;;;;33.17;17.67;;;6.00;1.00;7.20;94756.00;;;;7369368;19;20128;-76
2023/05/03 05:37:14;;;;;;;47.10;19.07;;;6.10;1.00;7.40;94786.00;;;;7364422;19;20156;-77
2023/05/03 05:39:48;;;;;;;64.67;18.40;;;6.30;1.00;7.50;94793.00;;;;7365351;19;20156;-75
2023/05/03 05:42:17;;;;;;;390.73;25.27;;;6.40;1.00;7.50;94788.00;;;;7365234;19;21324;-75
2023/05/03 05:44:51;;;;;;;203.83;20.73;;;6.40;1.00;7.60;94776.00;;;;7367751;19;20173;-76
2023/05/03 05:47:18;;;;;;;557.30;30.00;;;6.40;8.40;7.50;94795.00;;;;7375660;19;20133;-75
2023/05/03 05:49:53;;;;;;;142.80;19.53;;;6.30;30.00;7.50;94802.00;;;;7373905;19;20163;-76
2023/05/03 05:52:20;;;;;;;162.00;21.10;;;6.30;52.50;7.50;94794.00;;;;7373420;19;20129;-75
2023/05/03 05:54:55;;;;;;;65.43;17.87;;;6.40;67.90;7.40;94792.00;;;;7374439;19;20239;-75
2023/05/03 05:57:29;;;;;;;130.30;19.60;;;6.50;82.60;7.50;94800.00;;;;7373119;19;20152;-75
2023/05/03 06:00:13;;;;;;;340.63;23.23;;;6.50;96.80;7.60;94784.00;;;;7375105;19;20177;-77
2023/05/03 06:02:53;;;;;;;396.60;25.37;;;6.50;98.40;7.50;94776.00;;;;7374870;19;20658;-77
2023/05/03 06:05:22;;;;;;;368.40;22.10;;;6.50;99.90;7.70;94795.00;;;;7375785;19;20148;-77
2023/05/03 06:07:57;;;;;;;246.37;19.57;;;6.50;83.50;7.70;94794.00;;;;7377857;19;20129;-75
2023/05/03 06:10:25;;;;;;;388.80;23.97;;;6.50;37.80;7.90;94788.00;;;;7375942;19;20596;-76
2023/05/03 06:12:59;;;;;;;183.80;18.70;;;6.60;19.20;8.00;94771.00;;;;7376743;19;20165;-76
2023/05/03 06:15:26;;;;;;;133.53;16.80;;;6.60;1.00;7.90;94774.00;;;;7371980;19;20125;-77
2023/05/03 06:18:01;;;;;;;86.43;16.03;;;6.70;18.60;8.00;94777.00;;;;7377759;19;20465;-76
2023/05/03 06:20:36;;;;;;;95.03;16.13;;;7.00;96.70;8.00;94783.00;;;;7376031;19;20623;-77
2023/05/03 06:23:10;;;;;;;65.70;16.93;;;7.10;99.90;8.10;94789.00;;;;7377469;19;20140;-77
2023/05/03 06:25:38;;;;;;;37.17;14.57;;;7.10;1.00;8.20;94791.00;;;;7376989;19;20159;-77
2023/05/03 06:28:12;;;;;;;177.57;17.93;;;7.10;1.00;8.00;94790.00;;;;7377014;19;20140;-76
2023/05/03 06:30:40;;;;;;;158.57;17.13;;;7.10;1.00;8.10;94801.00;;;;7376628;19;20165;-78
2023/05/03 06:33:14;;;;;;;156.98;17.77;;;7.00;99.90;8.00;94809.00;;;;7376234;19;20155;-77
2023/05/03 06:35:48;;;;;;;35.00;14.00;;;7.00;11.40;8.20;94804.00;;;;7376324;19;20153;-77
2023/05/03 06:38:17;;;;;;;58.43;17.70;;;7.00;69.70;8.40;94776.00;;;;7374598;19;20145;-77
2023/05/03 06:40:51;;;;;;;69.70;14.40;;;7.10;1.00;8.40;94777.00;;;;7376524;19;20148;-76
2023/05/03 06:43:20;;;;;;;83.03;21.63;;;7.30;1.00;8.30;94775.00;;;;7377030;19;20132;-78
2023/05/03 06:45:54;;;;;;;65.17;13.70;;;7.60;1.00;8.40;94791.00;;;;7376933;19;21421;-77
2023/05/03 06:48:22;;;;;;;188.67;16.20;;;7.70;1.00;8.50;94784.00;;;;7373618;19;20220;-76
2023/05/03 06:50:56;;;;;;;66.10;12.90;;;7.70;1.00;8.50;94797.00;;;;7375003;19;20152;-78
2023/05/03 06:53:30;;;;;;;47.20;13.35;;;7.80;1.00;8.90;94786.00;;;;7375436;19;20132;-77
2023/05/03 06:56:05;;;;;;;48.75;12.23;;;8.00;1.00;8.90;94756.00;;;;7374926;19;20148;-77
2023/05/03 06:58:40;;;;;;;41.23;12.63;;;7.90;99.90;9.10;94788.00;;;;7375745;19;20176;-77
2023/05/03 07:01:08;;;;;;;34.47;11.63;;;8.00;22.00;9.00;94774.00;;;;7377225;19;20208;-79
2023/05/03 07:03:50;;;;;;;79.38;12.68;;;8.00;1.00;8.80;94778.00;;;;7375436;19;20182;-77
2023/05/03 07:06:24;;;;;;;40.20;12.97;;;7.90;1.00;8.90;94768.00;;;;7373880;19;21448;-78
2023/05/03 07:09:11;;;;;;;21.95;12.75;;;8.10;1.00;9.10;94793.00;;;;7374184;19;20129;-76
2023/05/03 07:11:55;;;;;;;16.33;13.10;;;8.30;1.00;9.10;94781.00;;;;7371762;19;20453;-77
2023/05/03 07:14:23;;;;;;;29.13;12.95;;;8.40;1.00;9.60;94750.00;;;;7371624;19;20608;-76
2023/05/03 07:16:57;;;;;;;22.65;11.25;;;8.70;1.00;9.70;94783.00;;;;7366032;19;20222;-76
2023/05/03 07:19:31;;;;;;;15.73;11.77;;;8.90;99.90;10.30;94758.00;;;;7370178;19;20181;-77
2023/05/03 07:22:06;;;;;;;13.85;11.13;;;9.10;12.30;10.10;94773.00;;;;7369071;19;20626;-77
2023/05/03 07:24:40;;;;;;;21.52;10.98;;;9.20;1.00;9.70;94772.00;;;;7368913;19;20140;-77
2023/05/03 07:27:14;;;;;;;20.52;11.25;;;9.20;99.90;9.80;94766.00;;;;7371490;19;20128;-78
2023/05/03 07:29:50;;;;;;;14.50;11.32;;;9.30;99.90;10.10;94774.00;;;;7368669;19;20142;-75
2023/05/03 07:32:24;;;;;;;16.45;11.27;;;9.30;99.90;10.00;94765.00;;;;7363562;19;20518;-76
2023/05/03 07:34:59;;;;;;;13.43;10.65;;;9.50;99.90;10.60;94742.00;;;;7367965;19;20156;-78
2023/05/03 07:37:33;;;;;;;15.68;11.15;;;9.80;99.90;10.70;94762.00;;;;7370844;19;20163;-77
2023/05/03 07:40:00;;;;;;;13.05;10.13;;;10.10;1.00;10.90;94771.00;;;;7369409;19;20156;-77
2023/05/03 07:42:37;;;;;;;12.05;10.35;;;10.30;1.00;11.60;94742.00;;;;7370241;19;20139;-79
2023/05/03 07:45:05;;;;;;;15.35;10.60;;;10.50;1.00;11.70;94762.00;;;;7370299;19;20156;-77
2023/05/03 07:47:39;;;;;;;14.27;10.55;;;10.70;99.90;11.80;94767.00;;;;7371087;19;20169;-77
2023/05/03 07:50:08;;;;;;;12.50;9.98;;;11.00;99.90;11.90;94726.00;;;;7368997;19;20181;-77
2023/05/03 07:52:42;;;;;;;12.23;9.27;;;10.90;99.90;12.10;94740.00;;;;7370637;19;20144;-77
2023/05/03 07:55:10;;;;;;;12.55;10.77;;;10.80;75.30;13.00;94737.00;;;;7370324;19;20163;-77
2023/05/03 07:57:44;;;;;;;11.77;9.82;;;11.20;99.90;13.60;94748.00;;;;7370515;19;20468;-77
2023/05/03 08:00:19;;;;;;;13.45;9.60;;;11.70;1.00;13.90;94744.00;;;;7369855;19;20149;-77
2023/05/03 08:02:52;;;;;;;13.25;10.05;;;12.00;1.00;14.50;94743.00;;;;7370369;19;20235;-78
2023/05/03 08:05:35;;;;;;;14.68;9.68;;;12.40;1.00;14.80;94738.00;;;;7369086;19;20136;-77
2023/05/03 08:08:04;;;;;;;11.35;8.55;;;12.90;99.90;14.90;94724.00;;;;7369953;19;20137;-77
2023/05/03 08:10:40;;;;;;;13.85;9.52;;;13.10;99.90;14.50;94757.00;;;;7372894;19;20135;-79
2023/05/03 08:13:08;;;;;;;16.00;9.90;;;12.90;99.90;14.60;94755.00;;;;7373937;19;20518;-78
2023/05/03 08:15:44;;;;;;;12.05;9.85;;;13.10;99.90;15.40;94750.00;;;;7373632;19;20159;-79
2023/05/03 08:18:19;;;;;;;11.80;8.70;;;13.50;99.90;15.40;94734.00;;;;7377792;19;20139;-78
2023/05/03 08:20:53;;;;;;;10.68;9.20;;;13.20;99.90;14.90;94781.00;;;;7378147;19;20128;-78
2023/05/03 08:23:20;;;;;;;11.45;9.65;;;13.20;99.90;14.20;94769.00;;;;7372904;19;20471;-79
2023/05/03 08:25:59;;;;;;;12.38;8.88;;;13.20;99.90;13.90;94746.00;;;;7370293;19;20176;-77
2023/05/03 08:28:29;;;;;;;11.68;8.90;;;13.00;99.90;14.00;94756.00;;;;7372679;19;20145;-79
2023/05/03 08:31:05;;;;;;;10.85;9.57;;;12.90;99.90;15.30;94726.00;;;;7372451;19;20156;-79
2023/05/03 08:33:33;;;;;;;12.05;9.00;;;13.30;99.90;16.80;94728.00;;;;7371358;19;20152;-74
2023/05/03 08:36:07;;;;;;;9.68;8.52;;;13.60;99.90;16.40;94783.00;;;;7367559;19;20220;-75
2023/05/03 08:38:40;;;;;;;11.43;9.25;;;13.90;49.60;16.40;94780.00;;;;7369168;19;20153;-76
2023/05/03 08:41:29;;;;;;;10.80;9.50;;;14.20;56.90;15.70;94780.00;;;;7361893;19;20196;-75
2023/05/03 08:44:03;;;;;;;9.43;8.23;;;14.30;1.00;15.30;94782.00;;;;7366103;19;20152;-74
2023/05/03 08:46:37;;;;;;;12.70;9.68;;;14.40;2.40;16.90;94786.00;;;;7366183;19;21529;-74
2023/05/03 08:49:08;;;;;;;12.25;9.40;;;14.70;1.00;16.90;94791.00;;;;7368983;19;20615;-74
2023/05/03 08:51:48;;;;;;;11.52;9.35;;;14.70;1.00;17.30;94789.00;;;;7368043;19;20160;-74
2023/05/03 08:54:19;;;;;;;11.00;9.00;;;14.60;1.00;16.90;94800.00;;;;7368345;19;20132;-73
2023/05/03 08:56:53;;;;;;;13.82;8.75;;;14.60;1.00;15.90;94786.00;;;;7368902;19;20628;-74
2023/05/03 08:59:28;;;;;;;11.93;8.45;;;14.50;1.00;14.90;94810.00;;;;7364341;19;20129;-73
2023/05/03 09:02:03;;;;;;;10.43;8.30;;;14.20;1.00;15.80;94767.00;;;;7368956;19;20176;-74
2023/05/03 09:04:39;;;;;;;11.77;9.50;;;14.20;1.00;17.20;94769.00;;;;7368950;19;20176;-76
2023/05/03 09:07:15;;;;;;;12.18;9.30;;;14.50;66.70;18.60;94788.00;;;;7370974;19;20136;-75
2023/05/03 09:09:43;;;;;;;11.75;8.93;;;15.10;32.40;17.00;94763.00;;;;7368214;19;20160;-78
2023/05/03 09:12:39;;;;;;;11.48;8.88;;;14.60;1.00;15.10;94800.00;;;;7371808;19;20219;-76
2023/05/03 09:15:21;;;;;;;10.75;8.77;;;14.00;1.00;14.50;94803.00;;;;7368185;19;20149;-76
2023/05/03 09:18:16;;;;;;;11.60;9.70;;;13.90;1.00;16.00;94803.00;;;;7373544;19;20149;-76
2023/05/03 09:20:51;;;;;;;10.82;8.70;;;13.90;59.90;17.20;94780.00;;;;7368862;19;20144;-75
2023/05/03 09:23:25;;;;;;;9.82;8.82;;;14.30;1.00;16.90;94802.00;;;;7368916;19;20634;-76
2023/05/03 09:25:54;;;;;;;10.27;9.18;;;14.40;1.00;17.30;94759.00;;;;7367985;19;20151;-76
2023/05/03 09:28:39;;;;;;;11.43;9.35;;;14.80;5.80;18.40;94765.00;;;;7369011;19;20171;-75
2023/05/03 09:31:08;;;;;;;10.52;9.27;;;15.00;1.00;17.90;94784.00;;;;7368728;19;20157;-75
2023/05/03 09:33:42;;;;;;;11.57;9.15;;;15.50;1.00;18.50;94769.00;;;;7370211;19;20135;-77
2023/05/03 09:36:16;;;;;;;9.60;8.23;;;15.80;1.00;18.90;94795.00;;;;7367756;19;20159;-75
2023/05/03 09:38:52;;;;;;;10.95;9.05;;;16.40;1.00;19.80;94760.00;;;;7369598;19;20152;-76
2023/05/03 09:41:30;;;;;;;9.68;8.40;;;16.70;1.00;19.40;94761.00;;;;7370288;19;20133;-76
2023/05/03 09:44:05;;;;;;;9.73;8.38;;;16.90;1.00;19.10;94760.00;;;;7367179;19;20628;-75
2023/05/03 09:47:01;;;;;;;9.85;8.85;;;17.20;1.00;19.10;94756.00;;;;7367695;19;20125;-75
2023/05/03 09:49:36;;;;;;;11.15;8.52;;;17.40;1.00;19.30;94763.00;;;;7368526;19;20221;-74
2023/05/03 09:52:11;;;;;;;9.65;8.65;;;17.60;1.00;20.50;94756.00;;;;7367336;19;20152;-75
2023/05/03 09:54:39;;;;;;;9.65;8.60;;;17.80;1.00;20.80;94781.00;;;;7367608;19;20152;-74
2023/05/03 09:57:14;;;;;;;11.73;9.43;;;18.00;1.00;20.60;94754.00;;;;7370755;19;20488;-74
2023/05/03 09:59:45;;;;;;;8.40;7.57;;;17.80;1.00;20.20;94762.00;;;;7371907;19;20169;-75
2023/05/03 10:02:21;;;;;;;9.73;8.50;;;17.70;1.00;21.30;94758.00;;;;7373831;19;20530;-75
2023/05/03 10:04:57;;;;;;;9.40;8.18;;;18.10;1.00;20.60;94761.00;;;;7372680;19;20191;-75
2023/05/03 10:07:33;;;;;;;8.65;7.75;;;18.10;1.00;21.10;94777.00;;;;7374531;19;20181;-74
2023/05/03 10:10:03;;;;;;;9.30;7.68;;;18.70;1.00;22.00;94756.00;;;;7375247;19;20148;-75
2023/05/03 10:12:37;;;;;;;9.88;7.68;;;19.20;1.00;21.90;94784.00;;;;7370398;19;20184;-75
2023/05/03 10:15:16;;;;;;;8.63;7.80;;;19.40;1.00;19.40;94806.00;;;;7373564;19;20128;-75
2023/05/03 10:17:45;;;;;;;9.07;8.18;;;18.70;1.00;18.50;94761.00;;;;7374622;19;20208;-75
2023/05/03 10:20:34;;;;;;;10.05;8.65;;;17.90;1.00;19.50;94766.00;;;;7372914;19;20145;-75
2023/05/03 10:23:10;;;;;;;11.10;8.70;;;17.70;1.00;20.70;94763.00;;;;7371736;19;20147;-75
2023/05/03 10:26:13;;;;;;;9.65;8.63;;;18.10;1.00;20.60;94731.00;;;;7372006;19;20151;-74
2023/05/03 10:28:40;;;;;;;9.95;8.65;;;18.60;1.00;20.50;94766.00;;;;7372900;19;20242;-75
2023/05/03 10:31:44;;;;;;;10.82;8.32;;;18.90;1.00;21.20;94803.00;;;;7374106;19;20152;-75
2023/05/03 10:34:24;;;;;;;13.68;8.45;;;19.60;1.00;20.70;94749.00;;;;7372669;19;20145;-75
2023/05/03 10:37:07;;;;;;;9.13;8.23;;;19.70;1.00;21.80;94729.00;;;;7372023;19;20173;-74
2023/05/03 10:39:34;;;;;;;9.45;8.07;;;19.90;1.00;22.20;94717.00;;;;7373174;19;20178;-75
2023/05/03 10:42:10;;;;;;;11.88;7.70;;;20.30;1.00;20.80;94733.00;;;;7371833;19;20152;-74
2023/05/03 10:45:01;;;;;;;8.68;7.30;;;20.10;1.00;21.80;94756.00;;;;7372410;19;20728;-74
2023/05/03 10:47:39;;;;;;;9.98;8.98;;;20.00;1.00;21.50;94752.00;;;;7371362;19;20153;-74
2023/05/03 10:50:16;;;;;;;9.52;8.43;;;19.70;1.00;20.00;94740.00;;;;7371721;19;20169;-74
2023/05/03 10:52:52;;;;;;;9.90;8.32;;;19.30;1.00;21.10;94743.00;;;;7371222;19;20179;-74
2023/05/03 10:55:23;;;;;;;8.95;8.05;;;19.40;1.00;22.60;94737.00;;;;7370883;19;20855;-75
2023/05/03 10:58:03;;;;;;;9.10;7.85;;;19.80;1.00;22.10;94760.00;;;;7372861;19;23255;-75
2023/05/03 11:00:42;;;;;;;8.98;7.28;;;20.30;1.00;21.20;94770.00;;;;7367514;19;20173;-75
2023/05/03 11:03:54;;;;;;;12.93;8.32;;;20.00;1.00;22.00;94722.00;;;;7370528;19;20204;-75
2023/05/03 11:06:39;;;;;;;8.70;7.78;;;20.00;1.00;23.90;94720.00;;;;7368236;19;20204;-75
2023/05/03 11:09:14;;;;;;;12.23;8.88;;;20.70;1.00;23.30;94739.00;;;;7371024;19;20141;-74
2023/05/03 11:11:48;;;;;;;10.65;8.27;;;20.90;1.00;21.40;94753.00;;;;7371424;19;20125;-74
2023/05/03 11:14:16;;;;;;;10.13;8.45;;;20.50;1.00;21.60;94754.00;;;;7371861;19;20148;-74
2023/05/03 11:16:50;;;;;;;10.27;8.15;;;20.30;1.00;20.70;94730.00;;;;7371597;19;20145;-75
2023/05/03 11:19:19;;;;;;;9.75;8.82;;;19.70;1.00;20.10;94757.00;;;;7370458;19;20125;-75
2023/05/03 11:21:54;;;;;;;11.63;8.73;;;19.10;1.00;19.50;94729.00;;;;7371343;19;20569;-75
2023/05/03 11:24:22;;;;;;;10.15;8.30;;;18.50;1.00;20.90;94725.00;;;;7371402;19;20129;-75
2023/05/03 11:26:56;;;;;;;10.73;8.07;;;18.40;1.00;21.60;94755.00;;;;7370550;19;20125;-75
2023/05/03 11:29:38;;;;;;;17.50;9.02;;;18.80;1.00;20.90;94749.00;;;;7371425;19;20216;-76